sensor_id;sensor_type;location;lat;lon;timestamp;temperature;humidity
7796;DHT22;3942;51.518;6.912;2022-09-27T00:04:49;14.10;99.90
7796;DHT22;3942;51.518;6.912;2022-09-27T00:09:51;14.00;99.90
7796;DHT22;3942;51.518;6.912;2022-09-27T00:14:52;13.80;99.90
7796;DHT22;3942;51.518;6.912;2022-09-27T00:19:58;13.70;99.90
7796;DHT22;3942;51.518;6.912;2022-09-27T00:25:02;13.70;99.90
7796;DHT22;3942;51.518;6.912;2022-09-27T00:35:10;13.60;99.90
7796;DHT22;3942;51.518;6.912;2022-09-27T00:40:13;13.60;99.90
7796;DHT22;3942;51.518;6.912;2022-09-27T00:45:16;13.60;99.90
7796;DHT22;3942;51.518;6.912;2022-09-27T00:50:27;13.60;99.90
7796;DHT22;3942;51.518;6.912;2022-09-27T00:55:33;13.50;99.90
7796;DHT22;3942;51.518;6.912;2022-09-27T01:00:39;13.60;99.90
7796;DHT22;3942;51.518;6.912;2022-09-27T01:05:44;13.60;99.90
7796;DHT22;3942;51.518;6.912;2022-09-27T01:10:54;13.60;99.90
7796;DHT22;3942;51.518;6.912;2022-09-27T01:16:06;13.70;99.90
7796;DHT22;3942;51.518;6.912;2022-09-27T01:21:37;13.70;99.90
7796;DHT22;3942;51.518;6.912;2022-09-27T01:27:00;13.70;99.90
7796;DHT22;3942;51.518;6.912;2022-09-27T01:32:15;13.50;99.90
7796;DHT22;3942;51.518;6.912;2022-09-27T01:37:26;13.60;99.90
7796;DHT22;3942;51.518;6.912;2022-09-27T01:42:36;13.60;99.90
7796;DHT22;3942;51.518;6.912;2022-09-27T01:47:45;13.60;99.90
7796;DHT22;3942;51.518;6.912;2022-09-27T01:52:52;13.50;99.90
7796;DHT22;3942;51.518;6.912;2022-09-27T01:57:58;13.50;99.90
7796;DHT22;3942;51.518;6.912;2022-09-27T02:03:05;13.50;99.90
7796;DHT22;3942;51.518;6.912;2022-09-27T02:08:14;13.60;99.90
7796;DHT22;3942;51.518;6.912;2022-09-27T02:13:21;13.60;99.90
7796;DHT22;3942;51.518;6.912;2022-09-27T02:18:28;13.40;99.90
7796;DHT22;3942;51.518;6.912;2022-09-27T02:28:41;13.40;99.90
7796;DHT22;3942;51.518;6.912;2022-09-27T02:33:48;13.40;99.90
7796;DHT22;3942;51.518;6.912;2022-09-27T02:43:55;13.40;99.90
7796;DHT22;3942;51.518;6.912;2022-09-27T02:49:06;13.40;99.90
7796;DHT22;3942;51.518;6.912;2022-09-27T02:54:20;13.30;99.90
7796;DHT22;3942;51.518;6.912;2022-09-27T02:59:29;13.30;99.90
7796;DHT22;3942;51.518;6.912;2022-09-27T03:04:36;13.20;99.90
7796;DHT22;3942;51.518;6.912;2022-09-27T03:09:42;13.20;99.90
7796;DHT22;3942;51.518;6.912;2022-09-27T03:14:45;12.80;99.90
7796;DHT22;3942;51.518;6.912;2022-09-27T03:19:48;13.10;99.90
7796;DHT22;3942;51.518;6.912;2022-09-27T03:24:50;13.00;99.90
7796;DHT22;3942;51.518;6.912;2022-09-27T03:29:52;13.00;99.90
7796;DHT22;3942;51.518;6.912;2022-09-27T03:34:56;13.10;99.90
7796;DHT22;3942;51.518;6.912;2022-09-27T03:45:00;13.10;99.90
7796;DHT22;3942;51.518;6.912;2022-09-27T03:50:04;13.10;99.90
7796;DHT22;3942;51.518;6.912;2022-09-27T03:55:06;13.00;99.90
7796;DHT22;3942;51.518;6.912;2022-09-27T04:05:14;12.80;99.90
7796;DHT22;3942;51.518;6.912;2022-09-27T04:10:16;12.80;99.90
7796;DHT22;3942;51.518;6.912;2022-09-27T04:15:18;12.80;99.90
7796;DHT22;3942;51.518;6.912;2022-09-27T04:20:21;12.80;99.90
7796;DHT22;3942;51.518;6.912;2022-09-27T04:25:23;12.50;99.90
7796;DHT22;3942;51.518;6.912;2022-09-27T04:35:29;12.70;99.90
7796;DHT22;3942;51.518;6.912;2022-09-27T04:40:48;12.60;99.90
7796;DHT22;3942;51.518;6.912;2022-09-27T04:45:51;12.70;99.90
7796;DHT22;3942;51.518;6.912;2022-09-27T04:56:01;12.30;99.90
7796;DHT22;3942;51.518;6.912;2022-09-27T05:01:06;12.50;99.90
7796;DHT22;3942;51.518;6.912;2022-09-27T05:06:10;12.50;99.90
7796;DHT22;3942;51.518;6.912;2022-09-27T05:11:12;12.30;99.90
7796;DHT22;3942;51.518;6.912;2022-09-27T05:16:13;12.40;99.90
7796;DHT22;3942;51.518;6.912;2022-09-27T05:31:22;12.40;99.90
7796;DHT22;3942;51.518;6.912;2022-09-27T05:36:26;12.30;99.90
7796;DHT22;3942;51.518;6.912;2022-09-27T05:46:32;12.30;99.90
7796;DHT22;3942;51.518;6.912;2022-09-27T05:56:37;12.20;99.90
7796;DHT22;3942;51.518;6.912;2022-09-27T06:01:39;11.90;99.90
7796;DHT22;3942;51.518;6.912;2022-09-27T06:06:43;12.20;99.90
7796;DHT22;3942;51.518;6.912;2022-09-27T06:11:44;12.10;99.90
7796;DHT22;3942;51.518;6.912;2022-09-27T06:16:46;12.10;99.90
7796;DHT22;3942;51.518;6.912;2022-09-27T06:21:50;12.00;99.90
7796;DHT22;3942;51.518;6.912;2022-09-27T06:26:52;12.00;99.90
7796;DHT22;3942;51.518;6.912;2022-09-27T06:31:55;11.90;99.90
7796;DHT22;3942;51.518;6.912;2022-09-27T06:36:58;11.90;99.90
7796;DHT22;3942;51.518;6.912;2022-09-27T06:42:00;11.90;99.90
7796;DHT22;3942;51.518;6.912;2022-09-27T06:47:02;11.80;99.90
7796;DHT22;3942;51.518;6.912;2022-09-27T06:52:05;11.90;99.90
7796;DHT22;3942;51.518;6.912;2022-09-27T06:57:07;11.90;99.90
7796;DHT22;3942;51.518;6.912;2022-09-27T07:02:09;11.80;99.90
7796;DHT22;3942;51.518;6.912;2022-09-27T07:07:14;11.70;99.90
7796;DHT22;3942;51.518;6.912;2022-09-27T07:22:28;12.10;99.90
7796;DHT22;3942;51.518;6.912;2022-09-27T07:27:31;11.80;99.90
7796;DHT22;3942;51.518;6.912;2022-09-27T07:32:35;11.80;99.90
7796;DHT22;3942;51.518;6.912;2022-09-27T07:37:38;12.00;99.90
7796;DHT22;3942;51.518;6.912;2022-09-27T07:42:40;11.90;99.90
7796;DHT22;3942;51.518;6.912;2022-09-27T07:47:42;11.80;99.90
7796;DHT22;3942;51.518;6.912;2022-09-27T07:52:46;12.00;99.90
7796;DHT22;3942;51.518;6.912;2022-09-27T07:57:49;11.90;99.90
7796;DHT22;3942;51.518;6.912;2022-09-27T08:02:51;11.90;99.90
7796;DHT22;3942;51.518;6.912;2022-09-27T08:07:55;11.70;99.90
7796;DHT22;3942;51.518;6.912;2022-09-27T08:12:57;11.80;99.90
7796;DHT22;3942;51.518;6.912;2022-09-27T08:17:59;11.90;99.90
7796;DHT22;3942;51.518;6.912;2022-09-27T08:28:05;12.10;99.90
7796;DHT22;3942;51.518;6.912;2022-09-27T08:33:08;12.00;99.90
7796;DHT22;3942;51.518;6.912;2022-09-27T08:43:21;11.90;99.90
7796;DHT22;3942;51.518;6.912;2022-09-27T08:48:26;11.70;99.90
7796;DHT22;3942;51.518;6.912;2022-09-27T08:53:35;11.70;99.90
7796;DHT22;3942;51.518;6.912;2022-09-27T08:58:42;11.70;99.90
7796;DHT22;3942;51.518;6.912;2022-09-27T09:03:48;11.80;99.90
7796;DHT22;3942;51.518;6.912;2022-09-27T09:08:59;12.00;99.90
7796;DHT22;3942;51.518;6.912;2022-09-27T09:14:17;12.10;99.90
7796;DHT22;3942;51.518;6.912;2022-09-27T09:19:36;12.00;99.90
7796;DHT22;3942;51.518;6.912;2022-09-27T09:24:56;12.10;99.90
7796;DHT22;3942;51.518;6.912;2022-09-27T09:30:19;12.10;99.90
7796;DHT22;3942;51.518;6.912;2022-09-27T09:35:23;11.90;99.90
7796;DHT22;3942;51.518;6.912;2022-09-27T09:40:33;12.10;99.90
7796;DHT22;3942;51.518;6.912;2022-09-27T09:45:40;12.40;99.90
7796;DHT22;3942;51.518;6.912;2022-09-27T09:50:45;12.20;99.90
7796;DHT22;3942;51.518;6.912;2022-09-27T09:55:53;12.40;99.90
7796;DHT22;3942;51.518;6.912;2022-09-27T10:01:07;12.30;99.90
7796;DHT22;3942;51.518;6.912;2022-09-27T10:06:13;12.20;99.90
7796;DHT22;3942;51.518;6.912;2022-09-27T10:11:21;12.30;99.90
7796;DHT22;3942;51.518;6.912;2022-09-27T10:16:25;12.10;99.90
7796;DHT22;3942;51.518;6.912;2022-09-27T10:21:29;12.30;99.90
7796;DHT22;3942;51.518;6.912;2022-09-27T10:31:35;12.50;99.90
7796;DHT22;3942;51.518;6.912;2022-09-27T10:36:38;12.90;99.90
7796;DHT22;3942;51.518;6.912;2022-09-27T10:41:41;12.90;99.90
7796;DHT22;3942;51.518;6.912;2022-09-27T10:46:44;13.10;99.90
7796;DHT22;3942;51.518;6.912;2022-09-27T10:51:50;13.10;99.90
7796;DHT22;3942;51.518;6.912;2022-09-27T10:56:57;13.20;99.90
7796;DHT22;3942;51.518;6.912;2022-09-27T11:07:12;13.00;99.90
7796;DHT22;3942;51.518;6.912;2022-09-27T11:12:16;12.90;99.90
7796;DHT22;3942;51.518;6.912;2022-09-27T11:27:51;12.90;99.90
7796;DHT22;3942;51.518;6.912;2022-09-27T11:33:17;13.00;99.90
7796;DHT22;3942;51.518;6.912;2022-09-27T11:49:03;12.80;99.90
7796;DHT22;3942;51.518;6.912;2022-09-27T11:59:48;12.60;99.90
7796;DHT22;3942;51.518;6.912;2022-09-27T12:10:10;12.60;99.90
7796;DHT22;3942;51.518;6.912;2022-09-27T12:15:15;12.70;99.90
7796;DHT22;3942;51.518;6.912;2022-09-27T12:20:22;12.80;99.90
7796;DHT22;3942;51.518;6.912;2022-09-27T12:25:28;12.70;99.90
7796;DHT22;3942;51.518;6.912;2022-09-27T12:30:33;12.60;99.90
7796;DHT22;3942;51.518;6.912;2022-09-27T12:35:41;12.60;99.90
7796;DHT22;3942;51.518;6.912;2022-09-27T12:40:48;12.60;99.90
7796;DHT22;3942;51.518;6.912;2022-09-27T12:46:01;12.60;99.90
7796;DHT22;3942;51.518;6.912;2022-09-27T12:51:07;12.60;99.90
7796;DHT22;3942;51.518;6.912;2022-09-27T12:56:24;12.70;99.90
7796;DHT22;3942;51.518;6.912;2022-09-27T13:11:58;12.90;99.90
7796;DHT22;3942;51.518;6.912;2022-09-27T13:17:01;13.10;99.90
7796;DHT22;3942;51.518;6.912;2022-09-27T13:27:38;12.60;99.90
7796;DHT22;3942;51.518;6.912;2022-09-27T13:38:17;12.50;99.90
7796;DHT22;3942;51.518;6.912;2022-09-27T13:53:58;12.70;99.90
7796;DHT22;3942;51.518;6.912;2022-09-27T14:04:09;12.80;99.90
7796;DHT22;3942;51.518;6.912;2022-09-27T14:09:18;12.90;99.90
7796;DHT22;3942;51.518;6.912;2022-09-27T14:14:23;12.70;99.90
7796;DHT22;3942;51.518;6.912;2022-09-27T14:19:26;12.80;99.90
7796;DHT22;3942;51.518;6.912;2022-09-27T14:29:40;12.90;99.90
7796;DHT22;3942;51.518;6.912;2022-09-27T14:34:42;12.80;99.90
7796;DHT22;3942;51.518;6.912;2022-09-27T14:39:52;12.70;99.90
7796;DHT22;3942;51.518;6.912;2022-09-27T14:44:59;12.80;99.90
7796;DHT22;3942;51.518;6.912;2022-09-27T14:50:15;12.40;99.90
7796;DHT22;3942;51.518;6.912;2022-09-27T15:00:24;12.50;99.90
7796;DHT22;3942;51.518;6.912;2022-09-27T15:10:34;12.50;99.90
7796;DHT22;3942;51.518;6.912;2022-09-27T15:15:37;12.70;99.90
7796;DHT22;3942;51.518;6.912;2022-09-27T15:20:51;12.60;99.90
7796;DHT22;3942;51.518;6.912;2022-09-27T15:31:04;12.70;99.90
7796;DHT22;3942;51.518;6.912;2022-09-27T15:36:08;12.50;99.90
7796;DHT22;3942;51.518;6.912;2022-09-27T15:41:13;12.50;99.90
7796;DHT22;3942;51.518;6.912;2022-09-27T15:46:27;12.50;99.90
7796;DHT22;3942;51.518;6.912;2022-09-27T15:51:39;12.50;99.90
7796;DHT22;3942;51.518;6.912;2022-09-27T15:56:43;12.30;99.90
7796;DHT22;3942;51.518;6.912;2022-09-27T16:06:47;12.50;99.90
7796;DHT22;3942;51.518;6.912;2022-09-27T16:11:50;12.50;99.90
7796;DHT22;3942;51.518;6.912;2022-09-27T16:16:54;12.50;99.90
7796;DHT22;3942;51.518;6.912;2022-09-27T16:21:57;12.40;99.90
7796;DHT22;3942;51.518;6.912;2022-09-27T16:27:04;12.30;99.90
7796;DHT22;3942;51.518;6.912;2022-09-27T16:37:09;12.10;99.90
7796;DHT22;3942;51.518;6.912;2022-09-27T16:47:14;11.90;99.90
7796;DHT22;3942;51.518;6.912;2022-09-27T16:52:16;11.90;99.90
7796;DHT22;3942;51.518;6.912;2022-09-27T16:57:20;12.00;99.90
7796;DHT22;3942;51.518;6.912;2022-09-27T17:02:22;11.80;99.90
7796;DHT22;3942;51.518;6.912;2022-09-27T17:07:24;11.60;99.90
7796;DHT22;3942;51.518;6.912;2022-09-27T17:12:27;11.60;99.90
7796;DHT22;3942;51.518;6.912;2022-09-27T17:17:29;11.60;99.90
7796;DHT22;3942;51.518;6.912;2022-09-27T17:22:31;11.70;99.90
7796;DHT22;3942;51.518;6.912;2022-09-27T17:27:34;11.60;99.90
7796;DHT22;3942;51.518;6.912;2022-09-27T17:32:36;11.50;99.90
7796;DHT22;3942;51.518;6.912;2022-09-27T17:37:38;11.60;99.90
7796;DHT22;3942;51.518;6.912;2022-09-27T17:42:41;11.60;99.90
7796;DHT22;3942;51.518;6.912;2022-09-27T17:47:43;11.50;99.90
7796;DHT22;3942;51.518;6.912;2022-09-27T17:53:02;11.50;99.90
7796;DHT22;3942;51.518;6.912;2022-09-27T17:58:05;11.50;99.90
7796;DHT22;3942;51.518;6.912;2022-09-27T18:03:07;11.70;99.90
7796;DHT22;3942;51.518;6.912;2022-09-27T18:13:12;11.50;99.90
7796;DHT22;3942;51.518;6.912;2022-09-27T18:18:14;11.50;99.90
7796;DHT22;3942;51.518;6.912;2022-09-27T18:28:24;11.50;99.90
7796;DHT22;3942;51.518;6.912;2022-09-27T18:38:29;11.40;99.90
7796;DHT22;3942;51.518;6.912;2022-09-27T18:58:42;11.60;99.90
7796;DHT22;3942;51.518;6.912;2022-09-27T19:03:44;11.50;99.90
7796;DHT22;3942;51.518;6.912;2022-09-27T19:08:51;11.50;99.90
7796;DHT22;3942;51.518;6.912;2022-09-27T19:13:55;11.50;99.90
7796;DHT22;3942;51.518;6.912;2022-09-27T19:34:07;11.70;99.90
7796;DHT22;3942;51.518;6.912;2022-09-27T19:44:14;11.70;99.90
7796;DHT22;3942;51.518;6.912;2022-09-27T19:54:18;11.70;99.90
7796;DHT22;3942;51.518;6.912;2022-09-27T20:04:24;12.00;99.90
7796;DHT22;3942;51.518;6.912;2022-09-27T20:14:30;11.90;99.90
7796;DHT22;3942;51.518;6.912;2022-09-27T20:19:31;11.90;99.90
7796;DHT22;3942;51.518;6.912;2022-09-27T20:24:33;12.00;99.90
7796;DHT22;3942;51.518;6.912;2022-09-27T20:49:46;11.70;99.90
7796;DHT22;3942;51.518;6.912;2022-09-27T20:54:48;12.00;99.90
7796;DHT22;3942;51.518;6.912;2022-09-27T20:59:51;12.00;99.90
7796;DHT22;3942;51.518;6.912;2022-09-27T21:04:53;11.90;99.90
7796;DHT22;3942;51.518;6.912;2022-09-27T21:15:00;12.00;99.90
7796;DHT22;3942;51.518;6.912;2022-09-27T21:20:02;11.90;99.90
7796;DHT22;3942;51.518;6.912;2022-09-27T21:25:05;12.10;99.90
7796;DHT22;3942;51.518;6.912;2022-09-27T21:30:10;11.90;99.90
7796;DHT22;3942;51.518;6.912;2022-09-27T21:35:12;12.00;99.90
7796;DHT22;3942;51.518;6.912;2022-09-27T21:45:17;12.10;99.90
7796;DHT22;3942;51.518;6.912;2022-09-27T21:50:19;12.10;99.90
7796;DHT22;3942;51.518;6.912;2022-09-27T22:00:25;11.90;99.90
7796;DHT22;3942;51.518;6.912;2022-09-27T22:05:26;11.70;99.90
7796;DHT22;3942;51.518;6.912;2022-09-27T22:10:28;11.70;99.90
7796;DHT22;3942;51.518;6.912;2022-09-27T22:20:35;11.70;99.90
7796;DHT22;3942;51.518;6.912;2022-09-27T22:25:37;11.60;99.90
7796;DHT22;3942;51.518;6.912;2022-09-27T22:30:40;11.80;99.90
7796;DHT22;3942;51.518;6.912;2022-09-27T22:35:44;11.90;99.90
7796;DHT22;3942;51.518;6.912;2022-09-27T22:45:57;11.90;99.90
7796;DHT22;3942;51.518;6.912;2022-09-27T22:51:00;11.90;99.90
7796;DHT22;3942;51.518;6.912;2022-09-27T22:56:04;11.70;99.90
7796;DHT22;3942;51.518;6.912;2022-09-27T23:01:09;11.80;99.90
7796;DHT22;3942;51.518;6.912;2022-09-27T23:06:12;11.80;99.90
7796;DHT22;3942;51.518;6.912;2022-09-27T23:11:15;11.70;99.90
7796;DHT22;3942;51.518;6.912;2022-09-27T23:21:24;11.70;99.90
7796;DHT22;3942;51.518;6.912;2022-09-27T23:26:27;11.80;99.90
7796;DHT22;3942;51.518;6.912;2022-09-27T23:31:31;11.70;99.90
7796;DHT22;3942;51.518;6.912;2022-09-27T23:36:33;11.60;99.90
7796;DHT22;3942;51.518;6.912;2022-09-27T23:41:35;11.70;99.90
7796;DHT22;3942;51.518;6.912;2022-09-27T23:51:40;11.50;99.90
7796;DHT22;3942;51.518;6.912;2022-09-27T23:56:44;11.30;99.90
